Time;durP1;ratioP1;P1;durP2;ratioP2;P2;SDS_P1;SDS_P2;PMS_P1;PMS_P2;Temp;Humidity;BMP_temperature;BMP_pressure;BME280_temperature;BME280_humidity;BME280_pressure;Samples;Min_cycle;Max_cycle;Signal;HPM_P1;HPM_P2
2021/07/27 00:00:39;;;;;;;7.07;3.78;;;;;;;19.17;57.21;97413.19;5101706;28;20051;-60
2021/07/27 00:03:06;;;;;;;4.68;4.00;;;;;;;18.94;57.48;97401.81;5102556;28;20044;-57
2021/07/27 00:05:33;;;;;;;7.72;4.10;;;;;;;19.23;57.65;97456.50;5107186;28;20059;-57
2021/07/27 00:08:13;;;;;;;6.05;4.55;;;;;;;19.20;57.75;97448.09;5107263;28;20438;-59
2021/07/27 00:10:39;;;;;;;6.88;4.45;;;;;;;19.25;57.76;97451.22;5105641;28;20044;-60
2021/07/27 00:13:06;;;;;;;6.55;4.45;;;;;;;19.23;57.86;97448.06;5107097;28;20052;-57
2021/07/27 00:15:33;;;;;;;6.63;4.40;;;;;;;19.32;57.49;97451.19;5107303;28;20139;-57
2021/07/27 00:18:00;;;;;;;5.53;3.92;;;;;;;19.25;57.75;97456.84;5106103;28;20079;-59
2021/07/27 00:20:27;;;;;;;7.95;4.65;;;;;;;19.13;57.84;97420.88;5107033;28;20104;-57
2021/07/27 00:22:54;;;;;;;7.80;5.13;;;;;;;18.74;59.05;97355.91;5106259;28;20047;-57
2021/07/27 00:25:21;;;;;;;7.18;6.05;;;;;;;18.84;60.72;97397.09;5106926;27;20051;-57
2021/07/27 00:27:48;;;;;;;5.60;4.75;;;;;;;18.97;59.49;97423.44;5105345;28;20066;-56
2021/07/27 00:30:14;;;;;;;7.18;4.70;;;;;;;19.01;60.04;97427.03;5106891;28;20051;-56
2021/07/27 00:32:43;;;;;;;5.88;4.35;;;;;;;18.92;59.34;97432.31;5104954;28;20047;-56
2021/07/27 00:35:12;;;;;;;5.57;4.30;;;;;;;18.89;59.36;97432.38;5106478;28;20154;-57
2021/07/27 00:37:43;;;;;;;6.50;4.53;;;;;;;18.89;59.50;97437.97;5105501;28;20513;-58
2021/07/27 00:40:12;;;;;;;6.55;4.22;;;;;;;18.81;59.48;97448.44;5105050;28;20087;-58
2021/07/27 00:42:46;;;;;;;5.30;4.60;;;;;;;18.65;59.60;97428.53;5105253;28;20061;-58
2021/07/27 00:45:14;;;;;;;7.55;4.32;;;;;;;18.67;60.18;97447.78;5106644;28;20063;-60
2021/07/27 00:47:41;;;;;;;6.93;4.50;;;;;;;18.40;60.43;97396.31;5104866;28;20058;-58
2021/07/27 00:50:09;;;;;;;5.05;4.55;;;;;;;18.70;60.22;97436.50;5105652;28;20052;-57
2021/07/27 00:52:38;;;;;;;5.65;4.65;;;;;;;18.70;60.40;97442.13;5106019;28;20058;-57
2021/07/27 00:55:05;;;;;;;5.57;4.43;;;;;;;18.76;60.08;97420.81;5104977;28;20047;-58
2021/07/27 00:57:32;;;;;;;7.78;4.72;;;;;;;18.50;59.89;97399.00;5105260;28;20055;-58
2021/07/27 00:59:59;;;;;;;8.05;4.72;;;;;;;18.74;60.19;97442.91;5104998;28;20459;-58
2021/07/27 01:02:27;;;;;;;7.40;4.80;;;;;;;18.74;60.54;97442.09;5106650;27;20410;-58
2021/07/27 01:04:53;;;;;;;5.55;4.85;;;;;;;18.75;60.40;97433.28;5104238;28;20055;-60
2021/07/27 01:07:21;;;;;;;8.23;4.78;;;;;;;18.01;60.50;97320.84;5104783;28;20067;-57
2021/07/27 01:09:49;;;;;;;7.43;4.63;;;;;;;18.31;59.95;97360.25;5104658;28;20136;-60
2021/07/27 01:12:15;;;;;;;5.93;4.35;;;;;;;18.77;60.00;97430.84;5104785;28;20055;-58
2021/07/27 01:14:42;;;;;;;6.35;4.53;;;;;;;18.81;59.85;97442.06;5104499;28;20059;-58
2021/07/27 01:17:09;;;;;;;7.07;4.22;;;;;;;18.73;60.07;97441.31;5103793;28;20158;-58
2021/07/27 01:19:54;;;;;;;5.55;4.25;;;;;;;18.70;60.35;97452.59;5106149;28;20060;-58
2021/07/27 01:44:06;;;;;;;7.25;5.10;;;;;;;18.45;61.84;97430.31;5105486;27;20162;-59
2021/07/27 01:46:36;;;;;;;5.30;4.47;;;;;;;18.52;61.60;97432.28;5105720;28;20067;-57
2021/07/27 01:49:05;;;;;;;8.68;4.80;;;;;;;18.49;61.86;97431.09;5103514;28;20068;-60
2021/07/27 01:51:42;;;;;;;7.10;4.47;;;;;;;18.40;62.41;97427.16;5104790;28;20062;-61
2021/07/27 01:54:12;;;;;;;7.43;4.47;;;;;;;18.46;62.28;97431.94;5105435;28;20117;-56
2021/07/27 01:56:40;;;;;;;5.85;4.25;;;;;;;17.72;62.17;97336.28;5103494;28;20497;-56
2021/07/27 01:59:09;;;;;;;7.57;4.88;;;;;;;18.27;63.01;97434.44;5103163;28;20436;-57
2021/07/27 02:01:40;;;;;;;7.07;5.05;;;;;;;18.08;62.40;97379.69;5105610;28;20055;-57
2021/07/27 02:04:06;;;;;;;5.97;4.75;;;;;;;18.15;62.76;97399.25;5103445;28;20052;-58
2021/07/27 02:06:33;;;;;;;6.03;5.47;;;;;;;18.08;63.11;97419.72;5103170;28;20437;-58
2021/07/27 02:09:06;;;;;;;5.40;4.90;;;;;;;17.96;63.03;97402.56;5104930;28;20438;-57
2021/07/27 02:11:40;;;;;;;7.28;5.57;;;;;;;18.23;63.72;97445.66;5104906;28;20141;-60
2021/07/27 02:14:07;;;;;;;7.47;6.43;;;;;;;17.72;65.89;97403.53;5103064;28;20047;-59
2021/07/27 02:16:36;;;;;;;9.15;6.22;;;;;;;18.01;66.24;97444.19;5105108;28;20516;-58
2021/07/27 02:19:03;;;;;;;8.95;5.75;;;;;;;18.00;66.26;97443.41;5102894;28;20087;-60
2021/07/27 02:21:31;;;;;;;6.90;5.35;;;;;;;18.00;65.06;97437.78;5104307;28;20579;-58
2021/07/27 02:24:02;;;;;;;8.43;6.53;;;;;;;17.75;65.17;97402.72;5103326;28;20115;-59
2021/07/27 02:26:29;;;;;;;7.38;5.35;;;;;;;17.86;64.38;97395.81;5103118;28;20048;-59
2021/07/27 02:28:56;;;;;;;7.28;5.00;;;;;;;17.84;64.08;97394.66;5105038;28;20429;-58
2021/07/27 02:31:29;;;;;;;7.80;4.75;;;;;;;18.17;64.43;97436.09;5102868;28;20059;-58
2021/07/27 02:33:56;;;;;;;;;;;;;;;18.24;64.12;97441.66;5105049;28;20417;-58
2021/07/27 02:36:23;;;;;;;9.10;4.75;;;;;;;17.38;64.95;97338.03;5102422;28;20445;-58
2021/07/27 02:38:49;;;;;;;5.57;4.70;;;;;;;17.75;65.21;97419.53;5102782;28;20055;-58
2021/07/27 02:41:25;;;;;;;5.93;4.70;;;;;;;18.10;64.99;97441.75;5102600;28;20146;-58
2021/07/27 02:43:52;;;;;;;15.43;5.65;;;;;;;17.99;64.79;97424.19;5090963;28;20056;-58
2021/07/27 02:46:19;;;;;;;7.88;4.80;;;;;;;18.06;64.82;97440.97;5103530;28;20051;-59
2021/07/27 02:48:46;;;;;;;17.55;5.47;;;;;;;18.15;64.80;97438.50;5103964;28;20055;-57
2021/07/27 02:51:13;;;;;;;13.23;5.60;;;;;;;18.16;64.59;97442.13;5102063;28;20071;-61
2021/07/27 02:53:40;;;;;;;14.73;5.82;;;;;;;17.75;65.31;97399.91;5104268;28;20525;-58
2021/07/27 02:56:07;;;;;;;11.45;5.00;;;;;;;18.15;65.12;97441.31;5102607;28;20055;-57
2021/07/27 02:58:33;;;;;;;13.05;5.15;;;;;;;18.13;65.26;97445.75;5102714;28;20059;-58
2021/07/27 03:01:02;;;;;;;6.75;5.00;;;;;;;18.16;65.14;97434.50;5102269;28;20131;-60
2021/07/27 03:03:29;;;;;;;6.53;4.57;;;;;;;17.84;65.05;97372.22;5103427;28;20603;-58
2021/07/27 03:06:00;;;;;;;12.52;5.18;;;;;;;18.14;65.59;97439.72;5102323;28;20059;-58
2021/07/27 03:08:47;;;;;;;5.93;4.93;;;;;;;18.15;65.68;97432.91;5102860;28;20047;-57
2021/07/27 03:11:15;;;;;;;9.52;6.80;;;;;;;18.05;65.83;97433.78;5103805;28;20154;-57
2021/07/27 03:13:42;;;;;;;8.90;6.93;;;;;;;18.02;66.11;97440.19;5102088;28;20051;-58
2021/07/27 03:16:19;;;;;;;7.18;6.05;;;;;;;18.00;66.33;97431.41;5102077;28;20058;-57
2021/07/27 03:18:53;;;;;;;7.88;5.60;;;;;;;18.07;66.19;97434.97;5102041;28;20162;-57
2021/07/27 03:21:25;;;;;;;7.72;5.07;;;;;;;18.03;66.48;97444.59;5103600;28;20100;-58
2021/07/27 03:23:53;;;;;;;7.22;5.43;;;;;;;17.93;66.61;97437.84;5102478;28;20567;-58
2021/07/27 03:26:22;;;;;;;7.47;4.75;;;;;;;17.99;66.72;97435.41;5103545;28;20506;-58
2021/07/27 03:28:49;;;;;;;15.68;5.35;;;;;;;15.73;66.80;97093.28;5102406;28;20058;-58
2021/07/27 03:31:17;;;;;;;9.57;5.22;;;;;;;17.97;67.11;97454.66;5102127;28;20055;-60
2021/07/27 03:33:44;;;;;;;6.75;4.93;;;;;;;18.00;67.33;97453.84;5102179;28;20134;-59
2021/07/27 03:36:10;;;;;;;6.63;5.28;;;;;;;18.00;66.91;97442.63;5103770;28;20522;-57
2021/07/27 03:38:41;;;;;;;10.55;5.20;;;;;;;18.05;66.91;97461.81;5102950;28;20051;-58
2021/07/27 03:41:09;;;;;;;7.65;5.15;;;;;;;18.04;67.11;97463.00;5107957;28;20052;-58
2021/07/27 03:43:37;;;;;;;8.77;6.00;;;;;;;17.95;66.93;97445.84;5107195;28;20062;-57
2021/07/27 03:46:05;;;;;;;7.72;5.90;;;;;;;18.09;67.20;97456.97;5106339;28;20406;-61
2021/07/27 03:48:32;;;;;;;8.55;5.82;;;;;;;18.13;67.11;97457.75;5105941;28;20079;-57
2021/07/27 03:50:59;;;;;;;9.77;6.13;;;;;;;18.32;66.43;97468.44;5107653;28;20130;-58
2021/07/27 03:53:27;;;;;;;11.13;5.60;;;;;;;18.19;66.02;97433.69;5107286;28;20162;-58
2021/07/27 03:55:53;;;;;;;8.82;5.47;;;;;;;18.34;65.87;97435.16;5106076;28;20063;-57
2021/07/27 03:58:21;;;;;;;8.90;5.57;;;;;;;18.52;65.41;97446.28;5107196;28;20050;-57
2021/07/27 04:00:49;;;;;;;6.95;5.75;;;;;;;18.29;65.52;97410.34;5106920;28;20067;-61
2021/07/27 04:03:16;;;;;;;8.60;5.10;;;;;;;18.68;65.35;97467.03;5106095;28;20062;-60
2021/07/27 04:05:46;;;;;;;8.27;4.75;;;;;;;18.69;65.42;97451.78;5107072;28;20249;-58
2021/07/27 04:08:13;;;;;;;6.15;5.05;;;;;;;18.76;65.27;97454.50;5107006;28;20051;-61
2021/07/27 04:10:39;;;;;;;5.30;4.75;;;;;;;18.63;65.56;97442.22;5106616;28;20062;-59
2021/07/27 04:13:06;;;;;;;8.57;4.88;;;;;;;18.93;64.86;97456.38;5106740;28;20055;-59
2021/07/27 04:15:40;;;;;;;6.85;5.30;;;;;;;18.94;64.95;97451.53;5107053;28;20064;-59
2021/07/27 04:18:06;;;;;;;19.05;5.53;;;;;;;18.86;64.26;97405.09;5105394;28;20146;-59
2021/07/27 04:20:33;;;;;;;25.13;6.38;;;;;;;19.23;64.00;97456.50;5106644;28;20070;-60
2021/07/27 04:23:01;;;;;;;23.17;6.47;;;;;;;18.62;64.06;97339.56;5105389;28;20062;-59
2021/07/27 04:25:33;;;;;;;9.40;6.53;;;;;;;19.37;64.47;97452.75;5106847;28;20051;-59
2021/07/27 04:27:59;;;;;;;7.97;6.65;;;;;;;19.55;63.75;97454.13;5105366;28;20065;-60
2021/07/27 04:30:27;;;;;;;23.60;7.68;;;;;;;18.99;63.93;97364.84;5104853;28;20192;-58
2021/07/27 04:32:53;;;;;;;12.57;7.47;;;;;;;18.93;63.76;97355.31;5105173;28;20051;-59
2021/07/27 04:35:20;;;;;;;15.70;9.73;;;;;;;19.51;63.36;97430.91;5104416;28;20055;-56
2021/07/27 04:37:50;;;;;;;8.82;6.43;;;;;;;19.72;62.99;97451.53;5105130;28;20060;-60
2021/07/27 04:40:17;;;;;;;8.48;6.15;;;;;;;19.76;62.67;97452.31;5105002;28;20066;-58
2021/07/27 04:42:43;;;;;;;8.55;6.55;;;;;;;19.54;62.89;97413.22;5105248;28;20064;-59
2021/07/27 04:45:11;;;;;;;9.55;7.35;;;;;;;19.86;62.55;97428.84;5107043;27;20135;-61
2021/07/27 04:47:37;;;;;;;11.57;6.68;;;;;;;20.07;62.50;97451.09;5106186;28;20062;-59
2021/07/27 04:50:05;;;;;;;23.25;7.53;;;;;;;20.14;62.41;97451.03;5103307;28;20062;-60
2021/07/27 04:52:32;;;;;;;18.30;6.03;;;;;;;20.36;61.63;97460.75;5070453;28;20146;-65
2021/07/27 04:54:59;;;;;;;19.67;6.60;;;;;;;20.52;61.15;97458.06;5039608;28;20050;-59
2021/07/27 04:57:26;;;;;;;13.50;6.75;;;;;;;20.60;61.03;97445.47;5104437;28;20048;-59
2021/07/27 04:59:54;;;;;;;19.27;6.90;;;;;;;20.83;60.28;97442.72;5104305;28;20082;-59
2021/07/27 05:02:22;;;;;;;12.70;5.20;;;;;;;20.84;59.09;97400.03;5105879;28;20122;-59
2021/07/27 05:04:48;;;;;;;22.40;6.72;;;;;;;21.23;59.15;97455.69;5105616;28;20529;-59
2021/07/27 05:07:15;;;;;;;13.30;5.55;;;;;;;21.07;58.70;97390.78;5104493;28;20538;-60
2021/07/27 05:09:42;;;;;;;10.27;5.63;;;;;;;21.67;57.81;97441.13;5105821;28;20052;-59
2021/07/27 05:12:09;;;;;;;10.35;5.72;;;;;;;21.90;57.31;97449.56;5104004;28;20235;-59
2021/07/27 05:14:35;;;;;;;8.75;5.70;;;;;;;22.09;57.37;97439.50;5106230;28;20054;-58
2021/07/27 05:17:07;;;;;;;8.00;5.30;;;;;;;22.23;57.31;97428.69;5104365;28;20059;-58
2021/07/27 05:19:34;;;;;;;10.10;6.47;;;;;;;22.15;56.76;97372.81;5105904;28;20583;-59
2021/07/27 05:22:00;;;;;;;13.60;7.70;;;;;;;22.64;56.45;97441.47;5105370;28;20055;-60
2021/07/27 05:24:27;;;;;;;10.15;5.95;;;;;;;22.81;55.03;97451.56;5103534;28;20111;-60
2021/07/27 05:26:54;;;;;;;7.07;5.38;;;;;;;22.96;54.59;97458.44;5103882;28;20052;-60
2021/07/27 05:29:21;;;;;;;9.70;6.63;;;;;;;23.16;53.82;97453.47;5104865;28;20050;-59
2021/07/27 05:31:48;;;;;;;13.57;6.20;;;;;;;23.20;54.62;97445.72;5103637;28;20112;-60
2021/07/27 05:34:15;;;;;;;12.70;6.03;;;;;;;23.30;54.27;97444.69;5105152;28;20134;-60
2021/07/27 05:36:41;;;;;;;12.45;6.28;;;;;;;23.32;54.04;97413.91;5105116;28;20050;-58
2021/07/27 05:39:08;;;;;;;12.63;6.88;;;;;;;22.94;55.20;97412.88;5104122;28;20058;-58
2021/07/27 05:41:36;;;;;;;10.50;6.50;;;;;;;22.76;56.36;97401.25;5105309;28;20062;-58
2021/07/27 05:44:03;;;;;;;15.70;6.47;;;;;;;23.06;55.14;97443.25;5103773;28;20155;-60
2021/07/27 05:46:31;;;;;;;17.70;6.38;;;;;;;23.31;54.17;97447.06;5105233;28;20059;-59
2021/07/27 05:48:58;;;;;;;13.85;6.13;;;;;;;23.52;53.25;97440.03;5105105;28;20051;-59
2021/07/27 05:51:43;;;;;;;15.35;6.47;;;;;;;22.56;52.57;97248.03;5081612;28;20063;-60
2021/07/27 05:54:10;;;;;;;11.50;6.75;;;;;;;23.89;52.29;97430.88;5065289;28;20059;-60
2021/07/27 05:56:37;;;;;;;13.40;5.90;;;;;;;23.85;51.56;97404.72;5064980;28;20060;-59
2021/07/27 05:59:03;;;;;;;14.95;6.90;;;;;;;23.62;50.49;97337.09;5064677;28;20060;-60
2021/07/27 06:01:30;;;;;;;6.40;5.80;;;;;;;23.77;49.93;97326.94;5064207;28;20154;-62
2021/07/27 06:03:57;;;;;;;11.95;5.95;;;;;;;24.75;49.12;97442.81;5081602;28;20166;-59
2021/07/27 06:06:24;;;;;;;7.97;4.93;;;;;;;24.92;48.24;97441.44;5081050;28;20145;-60
2021/07/27 06:08:50;;;;;;;8.82;5.88;;;;;;;25.18;47.34;97431.63;5081240;28;20052;-59
2021/07/27 06:11:17;;;;;;;12.00;5.78;;;;;;;25.43;46.06;97441.34;5081247;28;20150;-60
2021/07/27 06:13:44;;;;;;;9.15;4.93;;;;;;;25.70;44.59;97433.88;5081387;28;20233;-60
2021/07/27 06:16:10;;;;;;;7.15;5.80;;;;;;;25.89;44.92;97427.03;5064182;28;20483;-60
2021/07/27 06:18:37;;;;;;;8.15;5.72;;;;;;;26.16;45.27;97429.34;5064450;28;20222;-63
2021/07/27 06:21:04;;;;;;;16.80;6.93;;;;;;;26.25;44.78;97429.38;5080762;28;20521;-59
2021/07/27 06:23:30;;;;;;;10.13;6.35;;;;;;;26.28;44.34;97411.41;5080789;28;20048;-62
2021/07/27 06:25:57;;;;;;;7.07;5.57;;;;;;;26.33;43.70;97425.81;5080333;28;20048;-60
2021/07/27 06:28:24;;;;;;;9.40;5.97;;;;;;;26.40;43.06;97419.03;5063882;28;20052;-62
2021/07/27 06:30:51;;;;;;;9.20;5.55;;;;;;;26.67;42.17;97414.28;5080560;28;20056;-63
2021/07/27 06:33:17;;;;;;;10.80;6.20;;;;;;;26.92;41.97;97409.66;5063792;28;20502;-61
2021/07/27 06:35:44;;;;;;;7.90;6.35;;;;;;;27.10;41.43;97410.47;5059165;28;20055;-64
2021/07/27 06:38:11;;;;;;;11.10;6.10;;;;;;;27.34;42.01;97405.81;5080321;28;20056;-64
2021/07/27 06:40:37;;;;;;;8.00;5.80;;;;;;;27.53;41.14;97398.88;5080577;28;20056;-61
2021/07/27 06:43:05;;;;;;;8.65;7.38;;;;;;;26.97;42.54;97395.59;5080936;28;20479;-62
2021/07/27 06:45:31;;;;;;;7.38;5.82;;;;;;;26.81;42.27;97341.06;5080692;28;20052;-62
2021/07/27 06:47:58;;;;;;;7.07;5.32;;;;;;;27.38;42.55;97394.28;5069035;28;20137;-62
2021/07/27 06:50:26;;;;;;;9.32;6.00;;;;;;;27.33;42.07;97355.81;5102412;28;20059;-69
2021/07/27 06:52:54;;;;;;;10.15;5.30;;;;;;;27.78;41.59;97390.00;5103942;28;20540;-59
2021/07/27 06:55:21;;;;;;;7.15;5.70;;;;;;;27.91;40.42;97390.66;5102797;28;20130;-59
2021/07/27 06:57:52;;;;;;;7.47;5.35;;;;;;;28.24;39.91;97384.22;5102975;28;20670;-60
2021/07/27 07:00:19;;;;;;;6.18;5.57;;;;;;;28.33;39.02;97387.06;5102799;28;20157;-63
2021/07/27 07:02:45;;;;;;;9.95;6.90;;;;;;;28.12;39.25;97394.56;5100878;28;20043;-66
2021/07/27 07:05:12;;;;;;;9.25;6.15;;;;;;;28.33;39.27;97387.84;5102498;28;20127;-61
2021/07/27 07:07:39;;;;;;;8.43;5.38;;;;;;;28.27;39.03;97389.75;5103991;28;20569;-60
2021/07/27 07:10:06;;;;;;;9.98;5.15;;;;;;;28.32;38.97;97374.88;5103139;28;20134;-61
2021/07/27 07:12:33;;;;;;;8.85;5.60;;;;;;;28.52;39.05;97380.81;5094842;28;20061;-71
2021/07/27 07:15:00;;;;;;;7.75;5.65;;;;;;;28.54;38.65;97354.69;5100923;28;20071;-61
2021/07/27 07:17:27;;;;;;;10.85;6.40;;;;;;;29.02;37.88;97382.78;5101214;28;20512;-59
2021/07/27 07:19:54;;;;;;;9.90;5.93;;;;;;;28.84;37.79;97353.56;5103276;28;20142;-66
2021/07/27 07:22:21;;;;;;;13.38;5.80;;;;;;;29.26;37.38;97385.69;5103406;28;20043;-62
2021/07/27 07:24:48;;;;;;;10.90;5.80;;;;;;;29.47;37.77;97381.72;5101642;28;20044;-62
2021/07/27 07:27:15;;;;;;;7.45;6.38;;;;;;;29.08;36.74;97314.47;5101986;28;20433;-62
2021/07/27 07:29:42;;;;;;;7.03;5.35;;;;;;;29.62;36.25;97379.69;5103205;28;20079;-60
2021/07/27 07:32:09;;;;;;;5.10;4.80;;;;;;;29.44;35.33;97351.28;5102794;28;20044;-60
2021/07/27 07:34:36;;;;;;;7.35;5.65;;;;;;;29.66;35.12;97386.03;5102824;28;20176;-59
2021/07/27 07:37:06;;;;;;;6.32;5.35;;;;;;;29.58;35.33;97373.38;5102545;28;20059;-60
2021/07/27 07:39:34;;;;;;;6.70;4.93;;;;;;;29.56;34.72;97324.50;5101388;28;20048;-58
2021/07/27 07:42:03;;;;;;;6.35;5.63;;;;;;;29.59;35.54;97323.56;5102680;28;20052;-65
2021/07/27 07:44:31;;;;;;;6.45;5.85;;;;;;;28.59;35.52;97166.66;5103489;28;20154;-64
2021/07/27 07:46:58;;;;;;;7.28;5.95;;;;;;;29.83;35.73;97364.28;5102333;28;20134;-64
2021/07/27 07:49:25;;;;;;;8.68;5.85;;;;;;;30.03;35.45;97364.41;5100816;28;20058;-62
2021/07/27 07:51:53;;;;;;;5.63;5.20;;;;;;;30.11;34.98;97354.16;5102818;28;20121;-65
2021/07/27 07:54:20;;;;;;;8.23;5.60;;;;;;;30.02;35.39;97322.81;5101758;28;20054;-65
2021/07/27 07:56:47;;;;;;;9.65;5.50;;;;;;;30.11;34.63;97313.34;5100464;28;20561;-62
2021/07/27 07:59:14;;;;;;;7.03;5.80;;;;;;;30.59;34.89;97354.72;5101806;28;20047;-61
2021/07/27 08:01:48;;;;;;;10.55;5.75;;;;;;;30.30;34.70;97349.84;5080278;28;20056;-64
2021/07/27 08:04:15;;;;;;;6.45;5.95;;;;;;;30.45;35.11;97350.63;5081928;28;20059;-61
2021/07/27 08:06:42;;;;;;;9.05;6.30;;;;;;;29.94;34.89;97238.00;5081754;28;20048;-61
2021/07/27 08:09:09;;;;;;;6.47;5.72;;;;;;;31.07;33.68;97358.06;5082756;28;20154;-61
2021/07/27 08:11:38;;;;;;;7.18;6.07;;;;;;;31.17;33.93;97353.78;5082171;28;20063;-62
2021/07/27 08:14:06;;;;;;;6.38;5.03;;;;;;;31.05;33.29;97306.28;5082112;28;20052;-60
2021/07/27 08:16:33;;;;;;;7.72;5.57;;;;;;;31.17;33.19;97348.06;5082658;28;20098;-60
2021/07/27 08:19:02;;;;;;;8.25;6.40;;;;;;;30.86;32.80;97297.97;5081278;28;20051;-63
2021/07/27 08:21:29;;;;;;;11.35;7.40;;;;;;;30.71;33.78;97299.28;5081713;28;20055;-60
2021/07/27 08:23:56;;;;;;;10.75;7.30;;;;;;;30.62;34.03;97325.16;5081513;28;20044;-62
2021/07/27 08:26:23;;;;;;;9.90;5.90;;;;;;;30.29;35.36;97308.22;5080777;28;20048;-60
2021/07/27 08:28:49;;;;;;;14.55;9.82;;;;;;;30.77;34.84;97335.28;5065857;28;20499;-59
2021/07/27 08:31:16;;;;;;;8.60;6.05;;;;;;;30.98;33.96;97342.59;5085032;28;20055;-61
2021/07/27 08:33:43;;;;;;;10.40;5.80;;;;;;;30.69;33.81;97274.03;5083616;28;20048;-62
2021/07/27 08:36:10;;;;;;;14.32;7.05;;;;;;;31.34;33.98;97329.84;5082187;28;20577;-59
2021/07/27 08:38:36;;;;;;;9.25;6.22;;;;;;;31.73;33.37;97330.28;5082914;28;20059;-63
2021/07/27 08:41:06;;;;;;;8.43;7.55;;;;;;;32.09;33.20;97321.81;5083652;28;20111;-60
2021/07/27 08:43:33;;;;;;;6.00;5.40;;;;;;;32.45;32.19;97323.22;5085053;28;20159;-59
2021/07/27 08:46:00;;;;;;;9.10;6.25;;;;;;;31.70;30.93;97173.69;5085246;28;20047;-61
2021/07/27 08:48:27;;;;;;;5.85;5.35;;;;;;;30.67;31.94;97007.69;5085318;28;20059;-59
2021/07/27 08:50:54;;;;;;;8.20;5.18;;;;;;;32.72;31.63;97321.84;5082286;28;20434;-62
2021/07/27 08:53:21;;;;;;;12.35;9.20;;;;;;;32.76;31.24;97317.44;5084074;28;20048;-58
2021/07/27 08:55:48;;;;;;;10.63;7.32;;;;;;;32.80;31.70;97317.97;5085604;28;20058;-57
2021/07/27 08:58:16;;;;;;;8.50;6.28;;;;;;;32.55;32.27;97318.84;5085186;28;20052;-61
2021/07/27 09:00:43;;;;;;;11.38;5.90;;;;;;;32.84;31.45;97295.56;5084722;28;20060;-61
2021/07/27 09:03:11;;;;;;;9.60;6.50;;;;;;;33.24;30.93;97306.78;5081485;28;20040;-65
2021/07/27 09:05:39;;;;;;;9.88;5.70;;;;;;;33.18;30.41;97308.81;5083634;28;20047;-62
2021/07/27 09:08:08;;;;;;;8.73;6.07;;;;;;;32.42;31.64;97304.16;5064932;28;20048;-60
2021/07/27 09:10:38;;;;;;;8.15;5.72;;;;;;;32.58;31.91;97300.59;5064032;28;20488;-61
2021/07/27 09:13:13;;;;;;;7.25;6.55;;;;;;;31.97;31.85;97221.91;5079160;28;20056;-59
2021/07/27 09:15:42;;;;;;;8.65;5.88;;;;;;;32.74;31.86;97308.53;5084712;28;20048;-61
2021/07/27 09:18:11;;;;;;;8.88;7.80;;;;;;;32.37;32.35;97301.25;5082539;28;20511;-58
2021/07/27 09:20:39;;;;;;;11.35;8.30;;;;;;;32.74;32.03;97297.06;5079402;28;20048;-61
2021/07/27 09:23:27;;;;;;;15.45;6.88;;;;;;;33.04;31.49;97275.34;5084656;28;20470;-59
2021/07/27 09:25:59;;;;;;;8.57;5.97;;;;;;;33.32;31.03;97261.09;5083735;28;20087;-62
2021/07/27 09:28:26;;;;;;;9.32;8.00;;;;;;;33.74;30.87;97264.63;5082102;28;20056;-59
2021/07/27 09:31:01;;;;;;;9.55;7.00;;;;;;;34.17;30.40;97296.06;5083988;28;20434;-58
2021/07/27 09:33:33;;;;;;;11.27;8.25;;;;;;;34.42;29.62;97283.53;5084855;28;20101;-64
2021/07/27 09:36:02;;;;;;;8.50;7.18;;;;;;;34.67;29.99;97288.22;5083983;28;20052;-65
2021/07/27 09:38:34;;;;;;;9.82;6.20;;;;;;;34.12;29.94;97293.97;5083220;28;20059;-64
2021/07/27 09:41:06;;;;;;;7.97;6.90;;;;;;;34.03;30.59;97297.13;5084440;28;20082;-65
2021/07/27 09:43:48;;;;;;;8.02;6.32;;;;;;;34.30;30.63;97287.72;5084681;28;20466;-66
2021/07/27 09:46:15;;;;;;;7.75;6.40;;;;;;;34.70;29.98;97276.44;5083658;28;20087;-63
2021/07/27 09:48:43;;;;;;;11.00;7.25;;;;;;;34.69;30.41;97285.59;5083727;28;20047;-64
2021/07/27 09:51:11;;;;;;;13.80;9.00;;;;;;;34.47;30.41;97291.38;5083351;28;20059;-69
2021/07/27 09:53:40;;;;;;;10.00;7.93;;;;;;;33.08;30.19;97114.28;5081520;28;20278;-63
2021/07/27 09:56:11;;;;;;;9.25;5.88;;;;;;;34.22;30.23;97286.66;5079012;28;20577;-58
2021/07/27 09:58:38;;;;;;;7.68;6.70;;;;;;;34.46;29.54;97273.34;5083403;28;20044;-62
2021/07/27 10:01:07;;;;;;;10.60;7.28;;;;;;;34.45;29.95;97242.19;5081738;28;20064;-65
2021/07/27 10:03:43;;;;;;;8.00;6.95;;;;;;;34.94;29.29;97273.78;5083637;28;20060;-63
2021/07/27 10:06:19;;;;;;;9.73;8.68;;;;;;;34.98;29.83;97276.41;5081833;28;20101;-63
2021/07/27 10:08:56;;;;;;;12.20;7.15;;;;;;;34.57;29.91;97272.56;5082809;28;20145;-58
2021/07/27 10:11:36;;;;;;;10.45;6.15;;;;;;;34.43;30.40;97268.63;5083993;28;20315;-57
2021/07/27 10:14:07;;;;;;;6.63;6.03;;;;;;;34.74;29.48;97264.66;5083624;28;20134;-62
2021/07/27 10:16:34;;;;;;;9.00;8.02;;;;;;;35.07;29.90;97267.47;5083544;28;20145;-61
2021/07/27 10:19:11;;;;;;;12.50;6.90;;;;;;;35.42;29.06;97229.34;5083407;28;20040;-62
2021/07/27 10:21:38;;;;;;;7.50;6.75;;;;;;;35.83;28.41;97251.16;5082104;28;20067;-61
2021/07/27 10:24:12;;;;;;;15.63;6.60;;;;;;;35.64;28.42;97250.19;5083029;28;20491;-63
2021/07/27 10:26:40;;;;;;;8.27;7.10;;;;;;;35.11;29.30;97251.47;5082868;28;20048;-59
2021/07/27 10:29:07;;;;;;;8.23;7.35;;;;;;;35.05;29.33;97249.94;5083062;28;20490;-57
2021/07/27 10:31:39;;;;;;;10.65;7.40;;;;;;;35.13;29.24;97245.97;5083783;28;20067;-59
2021/07/27 10:34:08;;;;;;;7.97;7.17;;;;;;;35.05;29.19;97244.97;5082832;28;20082;-62
2021/07/27 10:36:43;;;;;;;7.55;6.50;;;;;;;35.08;29.55;97243.91;5081657;28;20305;-60
2021/07/27 10:39:18;;;;;;;11.40;9.73;;;;;;;35.30;29.20;97248.75;5083576;28;20048;-60
2021/07/27 10:41:51;;;;;;;8.85;7.78;;;;;;;34.85;29.32;97236.63;5083001;28;20056;-61
2021/07/27 10:44:21;;;;;;;;;;;;;;;35.00;29.43;97236.31;5081640;28;20052;-60
2021/07/27 10:46:52;;;;;;;12.68;9.23;;;;;;;35.55;29.04;97227.47;5083212;28;19981;-59
2021/07/27 10:49:22;;;;;;;9.70;8.02;;;;;;;35.95;28.40;97229.53;5082898;28;20048;-59
2021/07/27 10:51:52;;;;;;;8.52;7.72;;;;;;;35.75;28.24;97232.81;5081818;28;20044;-60
2021/07/27 10:54:27;;;;;;;10.98;8.20;;;;;;;35.57;28.97;97193.09;5083711;28;20052;-62
2021/07/27 10:57:05;;;;;;;10.88;9.00;;;;;;;35.51;29.10;97224.06;5082149;28;20453;-61
2021/07/27 10:59:36;;;;;;;10.13;9.07;;;;;;;35.69;28.09;97219.75;5082194;28;20062;-60
2021/07/27 11:02:09;;;;;;;11.07;9.35;;;;;;;35.90;28.33;97227.47;5082036;28;20534;-59
2021/07/27 11:04:37;;;;;;;9.13;8.25;;;;;;;36.19;28.04;97215.19;5082958;28;20052;-58
2021/07/27 11:07:14;;;;;;;14.07;9.25;;;;;;;35.99;27.62;97209.88;5082185;28;20060;-59
2021/07/27 11:09:54;;;;;;;11.18;10.07;;;;;;;35.12;28.91;97217.69;5070930;28;20514;-58
2021/07/27 11:12:33;;;;;;;13.93;9.02;;;;;;;35.23;29.00;97171.53;5082046;28;20459;-58
2021/07/27 11:15:09;;;;;;;14.98;9.15;;;;;;;35.79;27.61;97247.72;5083038;28;20141;-57
2021/07/27 11:17:37;;;;;;;11.10;8.50;;;;;;;35.91;27.69;97188.69;5083138;28;20060;-69
2021/07/27 11:20:06;;;;;;;13.38;8.98;;;;;;;35.84;27.79;97186.38;5080682;28;20108;-61
2021/07/27 11:22:34;;;;;;;11.40;9.80;;;;;;;35.84;28.03;97218.09;5082088;28;20052;-61
2021/07/27 11:25:01;;;;;;;9.50;8.27;;;;;;;35.98;27.76;97213.28;5081137;28;20040;-63
2021/07/27 11:27:31;;;;;;;10.52;9.48;;;;;;;36.10;28.67;97212.66;5082151;28;20058;-62
2021/07/27 11:30:00;;;;;;;11.90;8.57;;;;;;;35.39;28.45;97164.94;5082219;28;20517;-61
2021/07/27 11:33:06;;;;;;;10.65;8.93;;;;;;;35.80;28.37;97206.03;5080071;28;20044;-60
2021/07/27 11:35:41;;;;;;;11.07;8.75;;;;;;;35.41;28.93;97179.56;5061521;28;20511;-56
2021/07/27 11:38:09;;;;;;;13.38;10.15;;;;;;;35.55;28.62;97161.16;5081265;28;20052;-61
2021/07/27 11:40:36;;;;;;;16.20;8.13;;;;;;;36.28;28.42;97191.75;5083394;28;20052;-58
2021/07/27 11:43:05;;;;;;;16.23;9.52;;;;;;;36.88;27.71;97197.47;5080262;28;20507;-61
2021/07/27 11:45:41;;;;;;;11.48;10.27;;;;;;;36.93;27.61;97197.38;5082583;28;20419;-60
2021/07/27 11:48:09;;;;;;;10.70;9.13;;;;;;;36.47;27.99;97189.75;5082582;28;20063;-61
2021/07/27 11:50:42;;;;;;;10.68;9.68;;;;;;;36.78;28.20;97196.28;5083049;28;20047;-64
2021/07/27 11:53:23;;;;;;;17.13;11.73;;;;;;;36.33;28.00;97179.41;5080600;28;20070;-59
2021/07/27 11:55:50;;;;;;;13.35;9.70;;;;;;;36.71;27.48;97191.09;5074753;28;20048;-60
2021/07/27 11:58:28;;;;;;;13.98;10.30;;;;;;;36.65;27.48;97184.56;5081800;28;20060;-58
2021/07/27 12:00:56;;;;;;;11.75;9.73;;;;;;;36.75;27.52;97151.13;5084773;28;20062;-59